createdAt,value
2018-12-21T00:00:04.413Z,1.10
2018-12-21T00:02:33.811Z,1.63
2018-12-21T00:05:02.675Z,1.93
2018-12-21T00:07:31.462Z,1.73
2018-12-21T00:10:00.763Z,0.87
2018-12-21T00:12:29.686Z,0.80
2018-12-21T00:14:59.251Z,0.97
2018-12-21T00:17:34.586Z,1.37
2018-12-21T00:19:59.010Z,1.27
2018-12-21T00:22:28.179Z,1.07
2018-12-21T00:24:57.407Z,1.30
2018-12-21T00:27:26.652Z,1.37
2018-12-21T00:29:55.959Z,1.23
2018-12-21T00:32:30.424Z,2.45
2018-12-21T00:35:04.564Z,2.00
2018-12-21T00:37:39.049Z,2.85
2018-12-21T00:40:13.687Z,2.60
2018-12-21T00:42:47.887Z,3.40
2018-12-21T00:45:21.251Z,3.23
2018-12-21T00:47:50.667Z,3.33
2018-12-21T00:50:20.382Z,3.80
2018-12-21T00:52:49.637Z,2.93
2018-12-21T00:55:19.013Z,3.33
2018-12-21T00:57:48.248Z,4.70
2018-12-21T01:00:21.666Z,3.57
2018-12-21T01:02:50.939Z,4.40
2018-12-21T01:05:20.023Z,4.77
2018-12-21T01:07:49.246Z,4.20
2018-12-21T01:10:18.166Z,3.60
2018-12-21T01:12:47.317Z,4.20
2018-12-21T01:15:16.735Z,3.67
2018-12-21T01:17:46.039Z,3.83
2018-12-21T01:20:16.234Z,3.30
2018-12-21T01:22:45.495Z,4.10
2018-12-21T01:25:14.767Z,3.97
2018-12-21T01:27:44.047Z,4.73
2018-12-21T01:30:13.464Z,4.77
2018-12-21T01:32:42.721Z,4.23
2018-12-21T01:35:11.630Z,4.00
2018-12-21T01:37:40.791Z,5.00
2018-12-21T01:40:10.204Z,4.00
2018-12-21T01:42:39.476Z,3.47
2018-12-21T01:45:08.881Z,4.73
2018-12-21T01:47:38.187Z,4.50
2018-12-21T01:50:07.576Z,3.27
2018-12-21T01:52:36.860Z,3.77
2018-12-21T01:55:06.263Z,4.33
2018-12-21T01:57:35.504Z,4.87
2018-12-21T02:00:05.236Z,3.90
2018-12-21T02:02:34.478Z,3.67
2018-12-21T02:05:04.050Z,4.43
2018-12-21T02:07:33.307Z,3.62
2018-12-21T02:10:02.548Z,3.73
2018-12-21T02:12:31.925Z,3.02
2018-12-21T02:15:00.795Z,3.27
2018-12-21T02:17:30.128Z,3.20
2018-12-21T02:19:59.355Z,2.77
2018-12-21T02:22:28.643Z,2.62
2018-12-21T02:24:57.917Z,2.83
2018-12-21T02:27:26.806Z,2.47
2018-12-21T02:29:56.008Z,3.40
2018-12-21T02:32:25.273Z,2.83
2018-12-21T02:34:54.603Z,2.37
2018-12-21T02:37:23.837Z,2.97
2018-12-21T02:39:53.107Z,3.20
2018-12-21T02:42:22.002Z,3.43
2018-12-21T02:44:51.178Z,4.33
2018-12-21T02:47:20.417Z,3.00
2018-12-21T02:49:49.656Z,3.03
2018-12-21T02:52:18.923Z,2.97
2018-12-21T02:54:48.203Z,3.13
2018-12-21T02:57:17.436Z,3.87
2018-12-21T02:59:46.702Z,2.97
2018-12-21T03:02:15.987Z,3.70
2018-12-21T03:04:45.255Z,3.00
2018-12-21T03:07:14.543Z,3.83
2018-12-21T03:09:43.884Z,4.07
2018-12-21T03:12:13.185Z,3.50
2018-12-21T03:14:42.123Z,2.83
2018-12-21T03:17:10.902Z,2.20
2018-12-21T03:19:40.073Z,1.90
2018-12-21T03:22:14.693Z,1.97
2018-12-21T03:24:40.266Z,2.33
2018-12-21T03:27:09.600Z,2.67
2018-12-21T03:29:39.134Z,2.40
2018-12-21T03:32:08.402Z,2.40
2018-12-21T03:34:37.672Z,1.80
2018-12-21T03:37:07.027Z,1.30
2018-12-21T03:39:36.283Z,2.23
2018-12-21T03:42:05.558Z,1.90
2018-12-21T03:44:34.878Z,1.65
2018-12-21T03:47:04.191Z,2.20
2018-12-21T03:49:33.451Z,2.37
2018-12-21T03:52:02.312Z,2.03
2018-12-21T03:54:31.593Z,2.45
2018-12-21T03:57:00.843Z,2.87
2018-12-21T03:59:30.193Z,2.90
2018-12-21T04:01:59.431Z,2.50
2018-12-21T04:04:28.315Z,3.30
2018-12-21T04:06:57.459Z,2.70
2018-12-21T04:09:26.762Z,2.30
2018-12-21T04:11:56.057Z,2.60
2018-12-21T04:14:25.298Z,2.15
2018-12-21T04:16:54.681Z,2.63
2018-12-21T04:19:23.908Z,2.87
2018-12-21T04:21:52.795Z,3.40
2018-12-21T04:24:21.861Z,2.90
2018-12-21T04:26:52.081Z,2.93
2018-12-21T04:29:21.335Z,2.60
2018-12-21T04:31:50.616Z,3.43
2018-12-21T04:34:19.890Z,3.13
2018-12-21T04:36:49.197Z,2.73
2018-12-21T04:39:19.351Z,2.73
2018-12-21T04:41:48.639Z,3.10
2018-12-21T04:44:18.006Z,3.63
2018-12-21T04:46:47.359Z,3.13
2018-12-21T04:49:16.635Z,2.27
2018-12-21T04:51:45.883Z,2.67
2018-12-21T04:54:15.606Z,2.70
2018-12-21T04:56:44.868Z,2.43
2018-12-21T04:59:14.123Z,2.27
2018-12-21T05:01:43.409Z,2.43
2018-12-21T05:04:19.748Z,2.27
2018-12-21T05:06:43.119Z,1.93
2018-12-21T05:09:12.257Z,2.67
2018-12-21T05:11:41.509Z,1.93
2018-12-21T05:14:10.795Z,2.90
2018-12-21T05:16:40.063Z,4.20
2018-12-21T05:19:09.323Z,3.80
2018-12-21T05:21:38.603Z,3.30
2018-12-21T05:24:07.875Z,3.07
2018-12-21T05:26:37.138Z,4.43
2018-12-21T05:29:06.409Z,4.03
2018-12-21T05:31:35.640Z,4.60
2018-12-21T05:34:04.887Z,4.77
2018-12-21T05:36:33.794Z,5.25
2018-12-21T05:39:04.251Z,3.40
2018-12-21T05:41:33.510Z,4.33
2018-12-21T05:44:02.878Z,4.93
2018-12-21T05:46:31.746Z,5.03
2018-12-21T05:49:00.906Z,5.10
2018-12-21T05:51:30.178Z,5.37
2018-12-21T05:53:59.426Z,6.00
2018-12-21T05:56:28.828Z,4.87
2018-12-21T05:58:58.104Z,4.77
2018-12-21T06:01:27.434Z,5.63
2018-12-21T06:03:56.663Z,5.53
2018-12-21T06:06:26.035Z,4.75
2018-12-21T06:08:54.935Z,5.40
2018-12-21T06:11:24.106Z,5.90
2018-12-21T06:13:53.002Z,4.97
2018-12-21T06:16:21.786Z,5.60
2018-12-21T06:18:50.964Z,5.47
2018-12-21T06:21:20.251Z,6.83
2018-12-21T06:23:49.492Z,6.27
2018-12-21T06:26:19.287Z,5.43
2018-12-21T06:28:48.711Z,4.87
2018-12-21T06:31:18.144Z,4.77
2018-12-21T06:33:47.416Z,4.30
2018-12-21T06:36:16.799Z,4.70
2018-12-21T06:38:46.051Z,4.30
2018-12-21T06:41:15.319Z,4.63
2018-12-21T06:43:44.576Z,4.30
2018-12-21T06:46:14.253Z,4.40
2018-12-21T06:48:43.291Z,4.63
2018-12-21T06:51:12.440Z,5.00
2018-12-21T06:53:41.815Z,4.90
2018-12-21T06:56:10.716Z,4.50
2018-12-21T06:58:39.502Z,4.77
2018-12-21T07:01:08.699Z,5.97
2018-12-21T07:03:37.990Z,4.50
2018-12-21T07:06:06.886Z,5.23
2018-12-21T07:08:36.056Z,4.90
2018-12-21T07:11:04.945Z,5.45
2018-12-21T07:13:34.127Z,5.77
2018-12-21T07:16:03.087Z,5.13
2018-12-21T07:18:31.893Z,4.43
2018-12-21T07:21:01.101Z,5.37
2018-12-21T07:23:30.211Z,4.25
2018-12-21T07:25:59.051Z,4.13
2018-12-21T07:28:28.273Z,5.58
2018-12-21T07:30:57.563Z,6.00
2018-12-21T07:33:26.433Z,4.70
2018-12-21T07:35:55.626Z,6.60
2018-12-21T07:38:24.583Z,5.87
2018-12-21T07:40:53.406Z,5.90
2018-12-21T07:43:22.246Z,6.17
2018-12-21T07:45:51.059Z,6.10
2018-12-21T07:48:20.251Z,4.50
2018-12-21T07:50:49.544Z,6.83
2018-12-21T07:53:18.977Z,5.67
2018-12-21T07:55:48.232Z,6.50
2018-12-21T07:58:17.558Z,5.63
2018-12-21T08:00:46.879Z,5.20
2018-12-21T08:03:15.770Z,5.63
2018-12-21T08:05:44.661Z,5.30
2018-12-21T08:08:13.960Z,5.13
2018-12-21T08:10:43.685Z,4.37
2018-12-21T08:13:12.659Z,5.67
2018-12-21T08:15:41.888Z,4.87
2018-12-21T08:18:11.191Z,4.87
2018-12-21T08:20:40.562Z,5.63
2018-12-21T08:23:09.431Z,6.07
2018-12-21T08:25:38.250Z,6.40
2018-12-21T08:28:07.443Z,7.43
2018-12-21T08:30:36.359Z,7.13
2018-12-21T08:33:05.544Z,5.63
2018-12-21T08:35:34.930Z,5.33
2018-12-21T08:38:04.277Z,3.80
2018-12-21T08:40:33.266Z,5.50
2018-12-21T08:43:02.067Z,4.23
2018-12-21T08:45:30.942Z,4.83
2018-12-21T08:48:00.096Z,5.27
2018-12-21T08:50:29.003Z,5.33
2018-12-21T08:52:58.195Z,4.63
2018-12-21T08:55:27.484Z,4.67
2018-12-21T08:57:56.729Z,5.17
2018-12-21T09:00:25.987Z,4.47
2018-12-21T09:02:55.250Z,5.67
2018-12-21T09:05:24.245Z,6.17
2018-12-21T09:07:53.395Z,5.43
2018-12-21T09:10:22.287Z,7.07
2018-12-21T09:12:51.488Z,7.00
2018-12-21T09:15:21.108Z,5.43
2018-12-21T09:17:50.387Z,7.30
2018-12-21T09:20:20.489Z,6.00
2018-12-21T09:22:49.756Z,6.80
2018-12-21T09:25:19.006Z,8.30
2018-12-21T09:27:47.950Z,6.80
2018-12-21T09:30:16.746Z,6.97
2018-12-21T09:32:45.923Z,8.13
2018-12-21T09:35:15.223Z,7.07
2018-12-21T09:37:44.094Z,7.17
2018-12-21T09:40:13.561Z,7.33
2018-12-21T09:42:42.489Z,7.23
2018-12-21T09:45:11.681Z,7.13
2018-12-21T09:47:40.622Z,7.53
2018-12-21T09:50:10.764Z,7.20
2018-12-21T09:52:39.627Z,7.87
2018-12-21T09:55:09.087Z,7.77
2018-12-21T09:57:38.269Z,7.03
2018-12-21T10:00:09.204Z,7.20
2018-12-21T10:02:38.083Z,7.57
2018-12-21T10:05:09.827Z,6.83
2018-12-21T10:07:39.103Z,7.87
2018-12-21T10:10:08.437Z,6.53
2018-12-21T10:12:37.697Z,8.73
2018-12-21T10:15:07.242Z,8.30
2018-12-21T10:17:36.071Z,7.97
2018-12-21T10:20:06.827Z,6.70
2018-12-21T10:22:35.734Z,7.62
2018-12-21T10:25:05.956Z,6.23
2018-12-21T10:27:34.888Z,7.30
2018-12-21T10:30:04.484Z,7.75
2018-12-21T10:32:33.394Z,8.83
2018-12-21T10:35:02.569Z,7.13
2018-12-21T10:37:31.882Z,8.10
2018-12-21T10:40:01.156Z,7.87
2018-12-21T10:42:30.023Z,6.70
2018-12-21T10:44:59.240Z,6.75
2018-12-21T10:47:28.198Z,8.08
2018-12-21T10:49:56.990Z,10.53
2018-12-21T10:52:26.183Z,7.73
2018-12-21T10:54:55.086Z,8.50
2018-12-21T10:57:23.955Z,8.30
2018-12-21T10:59:53.214Z,8.00
2018-12-21T11:02:22.111Z,7.43
2018-12-21T11:04:51.428Z,7.23
2018-12-21T11:07:20.311Z,7.23
2018-12-21T11:09:49.154Z,8.30
2018-12-21T11:12:17.989Z,7.13
2018-12-21T11:14:46.814Z,8.10
2018-12-21T11:17:16.027Z,8.27
2018-12-21T11:19:44.971Z,8.17
2018-12-21T11:22:13.774Z,8.40
2018-12-21T11:24:42.566Z,8.70
2018-12-21T11:27:11.825Z,7.93
2018-12-21T11:29:41.172Z,9.00
2018-12-21T11:32:10.276Z,8.13
2018-12-21T11:34:39.093Z,7.50
2018-12-21T11:37:07.943Z,7.30
2018-12-21T11:39:37.383Z,8.80
2018-12-21T11:42:06.551Z,8.57
2018-12-21T11:44:35.464Z,7.92
2018-12-21T11:47:04.879Z,8.97
2018-12-21T11:49:33.758Z,9.10
2018-12-21T11:52:02.955Z,9.30
2018-12-21T11:54:32.265Z,8.50
2018-12-21T11:57:01.559Z,9.90
2018-12-21T11:59:44.670Z,9.93
2018-12-21T12:02:07.817Z,9.70
2018-12-21T12:04:36.599Z,9.48
2018-12-21T12:07:05.819Z,9.30
2018-12-21T12:09:34.734Z,8.35
2018-12-21T12:12:03.562Z,9.67
2018-12-21T12:14:32.780Z,9.53
2018-12-21T12:17:02.102Z,9.50
2018-12-21T12:19:31.380Z,10.43
2018-12-21T12:22:00.326Z,9.67
2018-12-21T12:24:29.155Z,9.10
2018-12-21T12:26:58.004Z,10.13
2018-12-21T12:29:26.819Z,8.33
2018-12-21T12:31:56.012Z,9.77
2018-12-21T12:34:24.890Z,9.73
2018-12-21T12:36:53.691Z,9.47
2018-12-21T12:39:22.504Z,10.90
2018-12-21T12:41:51.288Z,9.33
2018-12-21T12:44:20.478Z,8.43
2018-12-21T12:46:49.458Z,10.93
2018-12-21T12:49:18.692Z,9.10
2018-12-21T12:51:48.034Z,9.13
2018-12-21T12:54:16.943Z,9.23
2018-12-21T12:56:45.827Z,10.40
2018-12-21T12:59:14.990Z,9.97
2018-12-21T13:01:44.363Z,8.97
2018-12-21T13:04:14.195Z,9.30
2018-12-21T13:06:43.499Z,8.27
2018-12-21T13:09:12.375Z,10.07
2018-12-21T13:11:41.585Z,11.07
2018-12-21T13:14:10.524Z,9.10
2018-12-21T13:16:39.691Z,9.97
2018-12-21T13:19:08.627Z,9.93
2018-12-21T13:21:37.567Z,9.43
2018-12-21T13:24:06.792Z,12.30
2018-12-21T13:26:35.719Z,10.13
2018-12-21T13:29:04.518Z,10.70
2018-12-21T13:31:33.322Z,10.20
2018-12-21T13:34:02.151Z,9.53
2018-12-21T13:36:31.355Z,10.30
2018-12-21T13:39:00.253Z,9.33
2018-12-21T13:41:29.122Z,9.40
2018-12-21T13:43:57.890Z,9.60
2018-12-21T13:46:26.726Z,11.50
2018-12-21T13:48:55.951Z,9.00
2018-12-21T13:51:25.573Z,9.93
2018-12-21T13:53:54.495Z,10.27
2018-12-21T13:56:23.712Z,9.53
2018-12-21T13:58:52.607Z,11.23
2018-12-21T14:01:21.501Z,10.03
2018-12-21T14:03:50.298Z,10.60
2018-12-21T14:06:19.623Z,10.67
2018-12-21T14:08:48.470Z,9.90
2018-12-21T14:11:17.626Z,8.07
2018-12-21T14:13:46.879Z,10.00
2018-12-21T14:16:15.822Z,9.73
2018-12-21T14:18:45.011Z,10.57
2018-12-21T14:21:14.243Z,9.33
2018-12-21T14:23:43.511Z,10.20
2018-12-21T14:26:12.803Z,8.43
2018-12-21T14:28:42.612Z,10.03
2018-12-21T14:31:12.062Z,9.87
2018-12-21T14:33:40.986Z,9.50
2018-12-21T14:36:09.802Z,9.47
2018-12-21T14:38:39.218Z,9.57
2018-12-21T14:41:08.480Z,9.17
2018-12-21T14:43:37.740Z,9.67
2018-12-21T14:46:07.035Z,9.73
2018-12-21T14:48:35.951Z,9.67
2018-12-21T14:51:04.798Z,10.70
2018-12-21T14:53:33.612Z,8.67
2018-12-21T14:56:02.772Z,11.00
2018-12-21T14:58:32.051Z,8.90
2018-12-21T15:01:01.332Z,9.07
2018-12-21T15:03:30.654Z,10.05
2018-12-21T15:05:59.718Z,9.57
2018-12-21T15:08:28.967Z,8.07
2018-12-21T15:10:57.876Z,10.07
2018-12-21T15:13:27.083Z,10.23
2018-12-21T15:15:55.977Z,9.58
2018-12-21T15:18:25.186Z,10.27
2018-12-21T15:20:54.062Z,9.57
2018-12-21T15:23:23.229Z,10.20
2018-12-21T15:25:53.019Z,8.40
2018-12-21T15:28:21.939Z,9.53
2018-12-21T15:30:50.729Z,10.37
2018-12-21T15:33:19.844Z,10.43
2018-12-21T15:35:48.663Z,10.20
2018-12-21T15:43:17.687Z,8.80
2018-12-21T15:45:46.642Z,9.90
2018-12-21T15:48:15.460Z,8.83
2018-12-21T15:50:44.613Z,11.13
2018-12-21T15:53:13.924Z,10.10
2018-12-21T15:55:42.862Z,8.67
2018-12-21T15:58:12.074Z,10.27
2018-12-21T16:00:40.978Z,10.97
2018-12-21T16:03:09.791Z,8.63
2018-12-21T16:05:38.971Z,10.10
2018-12-21T16:08:07.999Z,9.37
2018-12-21T16:10:37.147Z,8.68
2018-12-21T16:13:06.045Z,9.67
2018-12-21T16:15:34.894Z,8.73
2018-12-21T16:18:04.147Z,9.43
2018-12-21T16:20:33.399Z,11.60
2018-12-21T16:23:02.280Z,8.63
2018-12-21T16:25:31.467Z,9.40
2018-12-21T16:28:00.456Z,9.10
2018-12-21T16:30:29.331Z,9.63
2018-12-21T16:32:58.511Z,8.70
2018-12-21T16:35:27.776Z,9.27
2018-12-21T16:37:56.722Z,9.70
2018-12-21T16:40:25.907Z,9.37
2018-12-21T16:42:54.831Z,8.43
2018-12-21T16:45:23.634Z,8.60
2018-12-21T16:47:52.861Z,10.30
2018-12-21T16:50:22.103Z,9.57
2018-12-21T16:52:51.462Z,9.13
2018-12-21T16:55:20.941Z,9.40
2018-12-21T16:57:49.879Z,9.00
2018-12-21T17:00:19.047Z,7.80
2018-12-21T17:02:47.943Z,9.90
2018-12-21T17:05:17.123Z,10.40
2018-12-21T17:07:47.027Z,8.00
2018-12-21T17:10:18.929Z,8.33
2018-12-21T17:12:48.451Z,8.17
2018-12-21T17:15:17.759Z,8.90
2018-12-21T17:17:46.702Z,7.63
2018-12-21T17:20:15.503Z,8.90
2018-12-21T17:22:44.323Z,8.67
2018-12-21T17:25:15.076Z,10.17
2018-12-21T17:27:44.628Z,8.37
2018-12-21T17:30:13.975Z,8.27
2018-12-21T17:32:43.246Z,8.40
2018-12-21T17:35:12.151Z,7.60
2018-12-21T17:37:41.475Z,8.57
2018-12-21T17:40:11.684Z,9.50
2018-12-21T17:42:40.587Z,8.93
2018-12-21T17:45:11.937Z,7.70
2018-12-21T17:47:41.328Z,7.43
2018-12-21T17:50:11.839Z,8.23
2018-12-21T17:52:41.144Z,8.40
2018-12-21T17:55:11.123Z,8.37
2018-12-21T17:57:40.024Z,8.97
2018-12-21T18:00:17.031Z,8.77
2018-12-21T18:02:49.499Z,8.80
2018-12-21T18:05:18.935Z,8.00
2018-12-21T18:07:48.861Z,8.07
2018-12-21T18:10:17.782Z,8.97
2018-12-21T18:12:46.632Z,9.47
2018-12-21T18:15:15.515Z,9.73
2018-12-21T18:17:44.734Z,7.93
2018-12-21T18:20:13.869Z,8.00
2018-12-21T18:22:43.499Z,7.70
2018-12-21T18:25:16.228Z,8.73
2018-12-21T18:27:46.379Z,9.37
2018-12-21T18:30:18.062Z,7.13
2018-12-21T18:32:46.919Z,7.73
2018-12-21T18:35:16.838Z,8.47
2018-12-21T18:37:50.919Z,6.83
2018-12-21T18:40:20.362Z,7.62
2018-12-21T18:42:49.572Z,7.83
2018-12-21T18:45:18.517Z,7.13
2018-12-21T18:47:47.339Z,7.63
2018-12-21T18:50:16.167Z,7.70
2018-12-21T18:52:45.392Z,9.03
2018-12-21T18:55:16.278Z,7.53
2018-12-21T18:57:45.530Z,8.00
2018-12-21T19:00:15.588Z,7.27
2018-12-21T19:02:44.830Z,6.77
2018-12-21T19:05:13.718Z,8.33
2018-12-21T19:07:42.938Z,6.93
2018-12-21T19:10:11.807Z,7.90
2018-12-21T19:12:41.181Z,7.47
2018-12-21T19:15:11.013Z,8.40
2018-12-21T19:17:40.333Z,9.07
2018-12-21T19:20:11.295Z,7.53
2018-12-21T19:22:40.635Z,8.00
2018-12-21T19:25:11.546Z,7.87
2018-12-21T19:27:40.855Z,7.80
2018-12-21T19:30:10.611Z,8.87
2018-12-21T19:32:41.300Z,8.37
2018-12-21T19:35:11.901Z,7.90
2018-12-21T19:37:40.994Z,8.03
2018-12-21T19:40:10.474Z,7.97
2018-12-21T19:42:39.607Z,8.17
2018-12-21T19:45:09.618Z,8.13
2018-12-21T19:47:38.446Z,6.27
2018-12-21T19:50:08.219Z,8.57
2018-12-21T19:52:37.460Z,8.43
2018-12-21T19:55:09.762Z,7.37
2018-12-21T19:57:38.956Z,8.10
2018-12-21T20:00:08.078Z,8.23
2018-12-21T20:02:37.303Z,9.77
2018-12-21T20:05:07.364Z,7.43
2018-12-21T20:07:36.231Z,8.40
2018-12-21T20:10:05.783Z,7.73
2018-12-21T20:12:34.645Z,7.63
2018-12-21T20:15:04.171Z,8.83
2018-12-21T20:17:33.440Z,7.10
2018-12-21T20:20:02.338Z,7.57
2018-12-21T20:22:31.980Z,8.13
2018-12-21T20:25:02.156Z,8.20
2018-12-21T20:27:31.676Z,7.87
2018-12-21T20:30:00.550Z,8.23
2018-12-21T20:32:29.383Z,7.70
2018-12-21T20:34:58.167Z,8.30
2018-12-21T20:37:27.018Z,8.33
2018-12-21T20:39:55.864Z,7.30
2018-12-21T20:42:25.107Z,7.90
2018-12-21T20:44:54.019Z,9.53
2018-12-21T20:47:22.855Z,8.00
2018-12-21T20:49:52.132Z,8.10
2018-12-21T20:52:21.403Z,8.63
2018-12-21T20:54:50.805Z,7.67
2018-12-21T20:57:22.249Z,7.58
2018-12-21T20:59:51.619Z,8.20
2018-12-21T21:02:20.923Z,7.97
2018-12-21T21:04:50.231Z,8.60
2018-12-21T21:07:20.414Z,7.10
2018-12-21T21:09:49.230Z,9.07
2018-12-21T21:12:18.091Z,9.27
2018-12-21T21:14:46.915Z,8.00
2018-12-21T21:17:17.279Z,7.73
2018-12-21T21:19:46.775Z,7.73
2018-12-21T21:22:15.688Z,7.90
2018-12-21T21:24:44.839Z,8.03
2018-12-21T21:27:13.787Z,8.87
2018-12-21T21:29:43.203Z,7.00
2018-12-21T21:32:12.479Z,9.87
2018-12-21T21:34:41.761Z,7.60
2018-12-21T21:37:11.043Z,7.33
2018-12-21T21:39:40.364Z,7.03
2018-12-21T21:42:09.303Z,8.67
2018-12-21T21:44:38.698Z,6.60
2018-12-21T21:47:07.526Z,6.97
2018-12-21T21:49:36.415Z,8.10
2018-12-21T21:52:05.239Z,7.10
2018-12-21T21:54:34.068Z,8.43
2018-12-21T21:57:03.015Z,8.10
2018-12-21T21:59:31.850Z,7.37
2018-12-21T22:02:00.683Z,7.73
2018-12-21T22:04:30.073Z,8.90
2018-12-21T22:06:59.356Z,7.27
2018-12-21T22:09:28.605Z,7.20
2018-12-21T22:11:57.493Z,6.77
2018-12-21T22:14:26.338Z,7.60
2018-12-21T22:16:55.749Z,8.37
2018-12-21T22:19:24.639Z,6.93
2018-12-21T22:21:54.059Z,8.07
2018-12-21T22:24:23.363Z,7.83
2018-12-21T22:26:52.683Z,7.27
2018-12-21T22:29:22.368Z,6.77
2018-12-21T22:31:51.279Z,6.47
2018-12-21T22:34:20.250Z,7.97
2018-12-21T22:36:49.051Z,8.33
2018-12-21T22:39:18.223Z,8.10
2018-12-21T22:41:47.504Z,8.07
2018-12-21T22:44:16.811Z,7.37
2018-12-21T22:46:46.139Z,6.43
2018-12-21T22:49:15.520Z,7.63
2018-12-21T22:51:46.555Z,7.80
2018-12-21T22:54:16.555Z,7.97
2018-12-21T22:56:45.907Z,7.90
2018-12-21T22:59:15.259Z,9.53
2018-12-21T23:01:44.651Z,8.20
2018-12-21T23:04:13.940Z,8.93
2018-12-21T23:06:43.232Z,7.63
2018-12-21T23:09:12.588Z,6.87
2018-12-21T23:11:41.912Z,8.27
2018-12-21T23:14:11.079Z,7.07
2018-12-21T23:16:39.915Z,8.73
2018-12-21T23:19:09.543Z,7.60
2018-12-21T23:21:38.767Z,7.53
2018-12-21T23:24:07.958Z,6.70
2018-12-21T23:26:36.954Z,6.97
2018-12-21T23:29:06.212Z,7.27
2018-12-21T23:31:35.590Z,7.43
2018-12-21T23:34:04.884Z,5.93
2018-12-21T23:36:34.219Z,5.80
2018-12-21T23:39:04.828Z,7.77
2018-12-21T23:41:34.176Z,5.87
2018-12-21T23:44:03.469Z,6.47
2018-12-21T23:46:32.813Z,6.67
2018-12-21T23:49:02.152Z,6.33
2018-12-21T23:51:31.432Z,5.70
2018-12-21T23:54:00.373Z,6.70
2018-12-21T23:56:29.271Z,5.30
2018-12-21T23:58:58.550Z,6.87
